Time;durP1;ratioP1;P1;durP2;ratioP2;P2;SDS_P1;SDS_P2;PMS_P1;PMS_P2;Temp;Humidity;BMP_temperature;BMP_pressure;BME280_temperature;BME280_humidity;BME280_pressure;Samples;Min_cycle;Max_cycle;Signal;HPM_P1;HPM_P2
2021/03/08 00:01:36;;;;;;;30.38;22.50;;;;;;;;;;5000341;28;20183;-77
2021/03/08 00:04:02;;;;;;;28.90;22.08;;;;;;;;;;4999921;28;20191;-77
2021/03/08 00:06:28;;;;;;;28.50;22.92;;;;;;;;;;5004159;28;20211;-77
2021/03/08 00:08:54;;;;;;;34.80;23.88;;;;;;;;;;4998610;28;20278;-78
2021/03/08 00:11:20;;;;;;;24.52;19.80;;;;;;;;;;4996460;28;20180;-78
2021/03/08 00:13:46;;;;;;;31.48;22.30;;;;;;;;;;5000327;28;20175;-77
2021/03/08 00:16:12;;;;;;;27.30;20.75;;;;;;;;;;5011202;28;20191;-77
2021/03/08 00:18:38;;;;;;;30.45;20.83;;;;;;;;;;5002736;28;20706;-78
2021/03/08 00:21:04;;;;;;;30.15;22.33;;;;;;;;;;4996348;28;20187;-78
2021/03/08 00:23:30;;;;;;;28.45;22.77;;;;;;;;;;4993618;28;20609;-78
2021/03/08 00:25:56;;;;;;;29.73;22.30;;;;;;;;;;4980366;28;20215;-78
2021/03/08 00:28:22;;;;;;;28.30;22.13;;;;;;;;;;4996644;28;20199;-78
2021/03/08 00:30:48;;;;;;;26.08;20.83;;;;;;;;;;4997700;28;20171;-78
2021/03/08 00:33:14;;;;;;;28.35;22.23;;;;;;;;;;4996352;28;20572;-77
2021/03/08 00:35:40;;;;;;;32.05;21.20;;;;;;;;;;4995082;28;20179;-78
2021/03/08 00:38:06;;;;;;;27.73;22.00;;;;;;;;;;4996136;28;20187;-78
2021/03/08 00:40:32;;;;;;;27.77;21.88;;;;;;;;;;5000213;28;20191;-78
2021/03/08 00:42:58;;;;;;;32.38;22.52;;;;;;;;;;4996677;28;20187;-78
2021/03/08 00:45:24;;;;;;;30.27;22.83;;;;;;;;;;5004192;28;20211;-78
2021/03/08 00:47:51;;;;;;;26.83;21.17;;;;;;;;;;4994706;28;20274;-78
2021/03/08 00:50:18;;;;;;;29.88;21.92;;;;;;;;;;4984383;28;20180;-78
2021/03/08 00:52:44;;;;;;;28.92;19.92;;;;;;;;;;4988404;28;20183;-78
2021/03/08 00:55:13;;;;;;;27.52;20.55;;;;;;;;;;4995954;28;20191;-78
2021/03/08 00:57:40;;;;;;;29.52;21.38;;;;;;;;;;4988225;28;20247;-78
2021/03/08 01:00:07;;;;;;;26.65;21.15;;;;;;;;;;4998553;28;20179;-77
2021/03/08 01:02:33;;;;;;;26.77;21.00;;;;;;;;;;4994619;28;20689;-77
2021/03/08 01:04:59;;;;;;;26.13;20.52;;;;;;;;;;4998675;28;20226;-77
2021/03/08 01:07:25;;;;;;;24.92;19.63;;;;;;;;;;4997776;28;20742;-77
2021/03/08 01:09:51;;;;;;;22.67;20.15;;;;;;;;;;4995877;28;20191;-77
2021/03/08 01:12:17;;;;;;;25.08;20.00;;;;;;;;;;4996810;28;20574;-77
2021/03/08 01:14:43;;;;;;;25.67;21.17;;;;;;;;;;4995188;28;20187;-77
2021/03/08 01:17:10;;;;;;;25.17;19.48;;;;;;;;;;4999278;28;20188;-77
2021/03/08 01:19:36;;;;;;;26.38;20.52;;;;;;;;;;5002802;28;20243;-77
2021/03/08 01:22:02;;;;;;;28.05;21.23;;;;;;;;;;4998553;28;20190;-77
2021/03/08 01:24:28;;;;;;;22.80;19.80;;;;;;;;;;5001824;28;20314;-77
2021/03/08 01:26:54;;;;;;;24.90;20.23;;;;;;;;;;4999914;28;20266;-77
2021/03/08 01:29:20;;;;;;;35.08;20.27;;;;;;;;;;4986057;28;20175;-77
2021/03/08 01:31:46;;;;;;;28.42;19.50;;;;;;;;;;4984625;28;20237;-77
2021/03/08 01:34:12;;;;;;;28.25;20.85;;;;;;;;;;5000597;28;20525;-77
2021/03/08 01:36:38;;;;;;;29.75;20.98;;;;;;;;;;4990470;28;20677;-77
2021/03/08 01:39:05;;;;;;;28.70;21.80;;;;;;;;;;4997695;28;20191;-77
2021/03/08 01:41:31;;;;;;;27.33;18.73;;;;;;;;;;5003159;28;20184;-76
2021/03/08 01:43:57;;;;;;;25.45;18.67;;;;;;;;;;4985854;28;20210;-77
2021/03/08 01:46:23;;;;;;;22.95;19.25;;;;;;;;;;5003282;28;20215;-77
2021/03/08 01:48:49;;;;;;;25.30;20.60;;;;;;;;;;5004801;28;20219;-77
2021/03/08 01:51:15;;;;;;;26.60;19.05;;;;;;;;;;5006860;28;20190;-77
2021/03/08 01:53:41;;;;;;;24.55;19.05;;;;;;;;;;5001868;28;20179;-77
2021/03/08 01:56:07;;;;;;;24.02;19.48;;;;;;;;;;4997971;28;20188;-77
2021/03/08 01:58:33;;;;;;;25.63;19.98;;;;;;;;;;4997229;28;20355;-77
2021/03/08 02:01:00;;;;;;;28.42;21.70;;;;;;;;;;5003613;28;20187;-77
2021/03/08 02:03:26;;;;;;;25.08;19.15;;;;;;;;;;4999803;28;20194;-77
2021/03/08 02:05:52;;;;;;;25.20;19.10;;;;;;;;;;4997246;28;20203;-77
2021/03/08 02:08:18;;;;;;;23.48;18.40;;;;;;;;;;4997305;28;20188;-77
2021/03/08 02:10:45;;;;;;;26.05;18.75;;;;;;;;;;5005114;28;20183;-76
2021/03/08 02:13:30;;;;;;;21.48;17.10;;;;;;;;;;4997039;28;20172;-77
2021/03/08 02:16:03;;;;;;;25.33;19.30;;;;;;;;;;5001795;28;20230;-77
2021/03/08 02:18:36;;;;;;;22.73;17.98;;;;;;;;;;5000092;28;20183;-77
2021/03/08 02:21:20;;;;;;;27.42;17.88;;;;;;;;;;4999043;28;20175;-77
2021/03/08 02:23:52;;;;;;;26.02;20.25;;;;;;;;;;4994952;28;20245;-77
2021/03/08 02:26:21;;;;;;;23.42;18.10;;;;;;;;;;5002051;28;20699;-77
2021/03/08 02:28:47;;;;;;;26.38;19.55;;;;;;;;;;5001972;28;20186;-77
2021/03/08 02:31:16;;;;;;;27.55;18.65;;;;;;;;;;4997270;28;20176;-77
2021/03/08 02:33:46;;;;;;;21.83;18.17;;;;;;;;;;4999564;28;20676;-77
2021/03/08 02:36:13;;;;;;;26.42;18.85;;;;;;;;;;4998400;28;20184;-77
2021/03/08 02:38:41;;;;;;;24.05;18.63;;;;;;;;;;4997495;28;20188;-77
2021/03/08 02:41:12;;;;;;;24.38;18.63;;;;;;;;;;4991350;28;20211;-77
2021/03/08 02:43:44;;;;;;;28.48;18.85;;;;;;;;;;5003953;28;20183;-77
2021/03/08 02:46:23;;;;;;;25.73;20.08;;;;;;;;;;4996165;28;20203;-77
2021/03/08 02:48:49;;;;;;;24.20;18.00;;;;;;;;;;4987462;28;20238;-77
2021/03/08 02:51:16;;;;;;;26.88;19.48;;;;;;;;;;5001893;28;20198;-77
2021/03/08 02:53:44;;;;;;;24.13;18.23;;;;;;;;;;4996677;28;20206;-77
2021/03/08 02:56:15;;;;;;;25.88;19.60;;;;;;;;;;4997645;28;20184;-77
2021/03/08 02:58:43;;;;;;;23.48;19.20;;;;;;;;;;4999154;28;20241;-77
2021/03/08 03:01:09;;;;;;;24.67;17.90;;;;;;;;;;5002231;28;20187;-77
2021/03/08 03:03:38;;;;;;;28.55;20.52;;;;;;;;;;4991205;28;20274;-77
2021/03/08 03:06:05;;;;;;;25.58;20.23;;;;;;;;;;5002886;28;20218;-77
2021/03/08 03:08:32;;;;;;;24.10;19.42;;;;;;;;;;4998826;28;20206;-77
2021/03/08 03:10:58;;;;;;;23.48;17.83;;;;;;;;;;5001207;28;20215;-77
2021/03/08 03:13:24;;;;;;;28.40;18.98;;;;;;;;;;4999760;28;20211;-76
2021/03/08 03:15:51;;;;;;;25.88;19.92;;;;;;;;;;4998257;28;20206;-77
2021/03/08 03:18:17;;;;;;;28.85;19.63;;;;;;;;;;5001288;28;20190;-77
2021/03/08 03:20:45;;;;;;;28.80;20.70;;;;;;;;;;4984058;28;20522;-77
2021/03/08 03:23:11;;;;;;;26.50;20.33;;;;;;;;;;4997171;28;20184;-77
2021/03/08 03:25:38;;;;;;;28.35;18.60;;;;;;;;;;5001224;28;20233;-77
2021/03/08 03:28:04;;;;;;;29.60;19.73;;;;;;;;;;4996647;28;20179;-77
2021/03/08 03:30:30;;;;;;;25.90;19.58;;;;;;;;;;5005332;28;20625;-77
2021/03/08 03:32:57;;;;;;;30.98;22.40;;;;;;;;;;4994387;28;20648;-77
2021/03/08 03:35:25;;;;;;;31.50;20.60;;;;;;;;;;4997480;28;20198;-76
2021/03/08 03:37:51;;;;;;;29.25;20.08;;;;;;;;;;5000445;28;20700;-76
2021/03/08 03:40:18;;;;;;;30.48;20.52;;;;;;;;;;5002999;28;20246;-77
2021/03/08 03:42:45;;;;;;;35.60;21.45;;;;;;;;;;4988725;28;20194;-77
2021/03/08 03:45:12;;;;;;;32.20;20.15;;;;;;;;;;4996493;28;20199;-77
2021/03/08 03:47:39;;;;;;;30.67;19.73;;;;;;;;;;4994577;28;20223;-77
2021/03/08 03:50:06;;;;;;;27.55;20.55;;;;;;;;;;4997279;28;20542;-77
2021/03/08 03:52:32;;;;;;;28.98;20.27;;;;;;;;;;5010082;28;20207;-77
2021/03/08 03:54:58;;;;;;;29.20;20.65;;;;;;;;;;4995734;28;20251;-77
2021/03/08 03:57:24;;;;;;;30.02;19.55;;;;;;;;;;5003206;28;20186;-77
2021/03/08 03:59:57;;;;;;;31.15;22.40;;;;;;;;;;4996822;28;20183;-76
2021/03/08 04:02:31;;;;;;;31.98;19.80;;;;;;;;;;4998915;28;20210;-77
2021/03/08 04:05:01;;;;;;;28.23;21.30;;;;;;;;;;4997938;28;20204;-77
2021/03/08 04:07:27;;;;;;;34.03;21.17;;;;;;;;;;4998987;28;20279;-77
2021/03/08 04:09:55;;;;;;;32.22;21.08;;;;;;;;;;4985818;28;20175;-77
2021/03/08 04:12:23;;;;;;;28.20;20.83;;;;;;;;;;5007439;28;20209;-77
2021/03/08 04:14:51;;;;;;;32.40;21.55;;;;;;;;;;4996680;28;20353;-77
2021/03/08 04:17:17;;;;;;;31.85;20.30;;;;;;;;;;4999293;28;20183;-77
2021/03/08 04:19:44;;;;;;;32.65;20.05;;;;;;;;;;4998961;28;20210;-77
2021/03/08 04:22:11;;;;;;;29.45;18.85;;;;;;;;;;4998365;28;20183;-77
2021/03/08 04:24:38;;;;;;;27.20;18.98;;;;;;;;;;4998284;28;20179;-77
2021/03/08 04:27:07;;;;;;;27.08;19.40;;;;;;;;;;4996146;28;20179;-77
2021/03/08 04:29:43;;;;;;;27.48;20.00;;;;;;;;;;4993458;28;20255;-77
2021/03/08 04:32:10;;;;;;;33.05;19.42;;;;;;;;;;4996237;28;20187;-77
2021/03/08 04:34:36;;;;;;;30.92;19.35;;;;;;;;;;4999396;28;20195;-77
2021/03/08 04:37:03;;;;;;;34.88;20.08;;;;;;;;;;4995562;28;20544;-77
2021/03/08 04:39:32;;;;;;;29.88;20.80;;;;;;;;;;4998592;28;20200;-77
2021/03/08 04:41:58;;;;;;;27.30;18.77;;;;;;;;;;4995443;28;20194;-77
2021/03/08 04:44:24;;;;;;;28.50;19.83;;;;;;;;;;4995073;28;20190;-77
2021/03/08 04:46:51;;;;;;;29.00;19.15;;;;;;;;;;4997587;28;20302;-77
2021/03/08 04:49:18;;;;;;;29.38;18.92;;;;;;;;;;4998715;28;20503;-77
2021/03/08 04:51:46;;;;;;;25.08;17.65;;;;;;;;;;4988018;28;20599;-77
2021/03/08 04:54:12;;;;;;;29.42;21.23;;;;;;;;;;4988989;28;20206;-77
2021/03/08 04:56:38;;;;;;;26.85;18.80;;;;;;;;;;4980682;28;20206;-77
2021/03/08 04:59:04;;;;;;;23.08;17.42;;;;;;;;;;4980614;28;20203;-77
2021/03/08 05:01:34;;;;;;;28.08;19.95;;;;;;;;;;4994989;28;20180;-77
2021/03/08 05:04:01;;;;;;;32.67;19.10;;;;;;;;;;4995535;28;20218;-77
2021/03/08 05:06:29;;;;;;;35.78;20.02;;;;;;;;;;4986770;28;20204;-77
2021/03/08 05:08:55;;;;;;;27.42;18.85;;;;;;;;;;4979358;28;20267;-77
2021/03/08 05:11:22;;;;;;;29.33;19.75;;;;;;;;;;4994151;28;20188;-77
2021/03/08 05:13:49;;;;;;;32.45;21.30;;;;;;;;;;4981580;28;20183;-77
2021/03/08 05:16:15;;;;;;;24.45;18.27;;;;;;;;;;4981905;28;20188;-77
2021/03/08 05:18:41;;;;;;;31.42;18.73;;;;;;;;;;4980307;28;20235;-77
2021/03/08 05:21:08;;;;;;;30.92;18.83;;;;;;;;;;4982086;28;20192;-77
2021/03/08 05:23:34;;;;;;;27.75;18.85;;;;;;;;;;4993978;28;20200;-77
2021/03/08 05:26:01;;;;;;;27.40;18.23;;;;;;;;;;4997232;28;20208;-77
2021/03/08 05:28:28;;;;;;;25.58;16.90;;;;;;;;;;4981787;28;20503;-77
2021/03/08 05:30:54;;;;;;;25.02;17.13;;;;;;;;;;4980465;28;20284;-77
2021/03/08 05:33:25;;;;;;;27.02;16.70;;;;;;;;;;4982445;28;20230;-77
2021/03/08 05:35:55;;;;;;;29.38;19.30;;;;;;;;;;4976769;28;20263;-77
2021/03/08 05:38:22;;;;;;;31.98;19.27;;;;;;;;;;4975945;28;20216;-78
2021/03/08 05:41:07;;;;;;;34.13;17.42;;;;;;;;;;4997474;28;20228;-78
2021/03/08 05:43:34;;;;;;;27.77;18.02;;;;;;;;;;4995790;28;20240;-78
2021/03/08 05:46:02;;;;;;;29.73;18.08;;;;;;;;;;4984118;28;20543;-78
2021/03/08 05:48:41;;;;;;;26.63;18.30;;;;;;;;;;4999770;28;20223;-78
2021/03/08 05:51:07;;;;;;;30.90;17.05;;;;;;;;;;4996551;28;20175;-78
2021/03/08 05:53:33;;;;;;;28.57;17.80;;;;;;;;;;4997594;28;20190;-78
2021/03/08 05:56:17;;;;;;;25.77;17.45;;;;;;;;;;5000540;28;20450;-79
2021/03/08 05:58:43;;;;;;;26.40;15.48;;;;;;;;;;5000703;28;20430;-79
2021/03/08 06:01:27;;;;;;;26.43;17.70;;;;;;;;;;5000172;28;20557;-78
2021/03/08 06:04:12;;;;;;;26.30;17.58;;;;;;;;;;4985607;28;20446;-79
2021/03/08 06:06:41;;;;;;;26.23;17.23;;;;;;;;;;5003048;28;20203;-79
2021/03/08 06:09:21;;;;;;;23.58;18.30;;;;;;;;;;5000682;28;20180;-79
2021/03/08 06:11:52;;;;;;;34.60;18.15;;;;;;;;;;4985280;28;20179;-79
2021/03/08 06:14:20;;;;;;;28.13;17.13;;;;;;;;;;4987360;28;20266;-78
2021/03/08 06:16:46;;;;;;;27.85;18.88;;;;;;;;;;5002862;28;20634;-77
2021/03/08 06:19:13;;;;;;;25.75;17.95;;;;;;;;;;5013167;28;20200;-78
2021/03/08 06:21:39;;;;;;;26.92;16.27;;;;;;;;;;5000404;28;20175;-78
2021/03/08 06:24:05;;;;;;;25.75;16.70;;;;;;;;;;4998619;28;20193;-78
2021/03/08 06:26:32;;;;;;;26.05;18.02;;;;;;;;;;4984225;28;20207;-78
2021/03/08 06:28:58;;;;;;;30.67;17.10;;;;;;;;;;4999505;28;20191;-78
2021/03/08 06:31:25;;;;;;;35.47;20.40;;;;;;;;;;5001418;28;20175;-78
2021/03/08 06:33:52;;;;;;;29.20;17.02;;;;;;;;;;4999308;28;20607;-78
2021/03/08 06:36:19;;;;;;;27.98;17.75;;;;;;;;;;4999301;28;20237;-78
2021/03/08 06:38:45;;;;;;;30.60;17.90;;;;;;;;;;4997271;28;20194;-78
2021/03/08 06:41:11;;;;;;;27.95;16.38;;;;;;;;;;4997380;28;20183;-79
2021/03/08 06:43:37;;;;;;;30.90;16.83;;;;;;;;;;5003049;28;20221;-78
2021/03/08 06:46:04;;;;;;;29.45;18.38;;;;;;;;;;4996408;28;20211;-79
2021/03/08 06:48:30;;;;;;;30.42;19.10;;;;;;;;;;4998202;28;20226;-79
2021/03/08 06:51:06;;;;;;;23.88;15.95;;;;;;;;;;4996245;28;20198;-78
2021/03/08 06:53:33;;;;;;;28.33;17.10;;;;;;;;;;4998953;28;20190;-78
2021/03/08 06:56:12;;;;;;;27.15;18.10;;;;;;;;;;4980629;28;20225;-78
2021/03/08 06:58:38;;;;;;;26.60;17.25;;;;;;;;;;4996930;28;20184;-78
2021/03/08 07:01:11;;;;;;;31.70;18.83;;;;;;;;;;5011299;28;20213;-78
2021/03/08 07:03:37;;;;;;;23.67;16.17;;;;;;;;;;5001707;28;20175;-77
2021/03/08 07:06:23;;;;;;;26.90;17.10;;;;;;;;;;4998577;28;20206;-77
2021/03/08 07:08:49;;;;;;;25.50;17.55;;;;;;;;;;4978543;28;20175;-77
2021/03/08 07:11:20;;;;;;;29.20;16.95;;;;;;;;;;4982553;28;20179;-77
2021/03/08 07:13:46;;;;;;;30.85;17.55;;;;;;;;;;5005602;28;20175;-77
2021/03/08 07:16:13;;;;;;;30.90;18.55;;;;;;;;;;5001612;28;20204;-76
2021/03/08 07:18:40;;;;;;;28.55;17.95;;;;;;;;;;5003717;28;20310;-77
2021/03/08 07:21:12;;;;;;;26.90;17.20;;;;;;;;;;5003424;28;20195;-77
2021/03/08 07:23:38;;;;;;;29.67;18.25;;;;;;;;;;5000622;28;20187;-77
2021/03/08 07:26:08;;;;;;;26.10;16.77;;;;;;;;;;5002934;28;20222;-77
2021/03/08 07:28:34;;;;;;;28.70;17.42;;;;;;;;;;5003348;28;20194;-77
2021/03/08 07:31:00;;;;;;;27.15;17.33;;;;;;;;;;5002709;28;20175;-77
2021/03/08 07:33:26;;;;;;;31.85;18.65;;;;;;;;;;5004602;28;20179;-77
2021/03/08 07:35:53;;;;;;;31.23;18.38;;;;;;;;;;5001919;28;20206;-77
2021/03/08 07:38:28;;;;;;;34.08;21.10;;;;;;;;;;4997370;28;20198;-78
2021/03/08 07:41:13;;;;;;;29.60;18.40;;;;;;;;;;4997117;28;20248;-77
2021/03/08 07:43:40;;;;;;;36.83;18.77;;;;;;;;;;4998419;28;20175;-78
2021/03/08 07:46:06;;;;;;;29.75;18.83;;;;;;;;;;5000927;28;20206;-77
2021/03/08 07:48:32;;;;;;;29.05;18.70;;;;;;;;;;5003630;28;20227;-77
2021/03/08 07:51:05;;;;;;;28.60;18.05;;;;;;;;;;5001073;28;20186;-76
2021/03/08 07:53:31;;;;;;;24.60;16.02;;;;;;;;;;4997062;28;20544;-76
2021/03/08 07:55:58;;;;;;;27.05;17.50;;;;;;;;;;5005334;28;20191;-76
2021/03/08 07:58:25;;;;;;;26.90;17.63;;;;;;;;;;4998791;28;20199;-76
2021/03/08 08:00:51;;;;;;;27.25;17.92;;;;;;;;;;5000562;28;20183;-76
2021/03/08 08:03:17;;;;;;;29.58;17.27;;;;;;;;;;4997114;28;20184;-76
2021/03/08 08:05:44;;;;;;;31.33;16.75;;;;;;;;;;4998555;28;20546;-76
2021/03/08 08:08:10;;;;;;;26.48;16.77;;;;;;;;;;4996154;28;20688;-76
2021/03/08 08:10:37;;;;;;;26.23;17.55;;;;;;;;;;4999039;28;20179;-77
2021/03/08 08:13:04;;;;;;;28.45;18.85;;;;;;;;;;4995751;28;20235;-77
2021/03/08 08:15:32;;;;;;;31.60;20.38;;;;;;;;;;5003920;28;20189;-77
2021/03/08 08:17:59;;;;;;;26.88;16.88;;;;;;;;;;4998468;28;20190;-79
2021/03/08 08:20:25;;;;;;;26.00;16.90;;;;;;;;;;4995416;28;20199;-78
2021/03/08 08:22:59;;;;;;;22.50;16.27;;;;;;;;;;4999935;28;20282;-78
2021/03/08 08:25:26;;;;;;;29.75;16.83;;;;;;;;;;4997247;28;20295;-78
2021/03/08 08:27:52;;;;;;;28.40;19.25;;;;;;;;;;4986653;28;20187;-77
2021/03/08 08:30:21;;;;;;;30.65;19.45;;;;;;;;;;5001344;28;20176;-76
2021/03/08 08:32:48;;;;;;;24.25;15.52;;;;;;;;;;5003557;28;20206;-77
2021/03/08 08:35:22;;;;;;;27.48;18.63;;;;;;;;;;5002482;28;20186;-77
2021/03/08 08:38:07;;;;;;;28.77;18.58;;;;;;;;;;4980594;28;20190;-77
2021/03/08 08:40:33;;;;;;;29.98;18.42;;;;;;;;;;4998608;28;20711;-77
2021/03/08 08:43:26;;;;;;;29.63;17.83;;;;;;;;;;5003363;28;20187;-77
2021/03/08 08:45:53;;;;;;;27.88;17.38;;;;;;;;;;4997905;28;20377;-77
2021/03/08 08:48:22;;;;;;;28.17;18.50;;;;;;;;;;4999436;28;20217;-77
2021/03/08 08:50:54;;;;;;;27.65;17.67;;;;;;;;;;4993873;28;20221;-77
2021/03/08 08:53:29;;;;;;;25.40;18.50;;;;;;;;;;4982335;28;20187;-77
2021/03/08 08:55:55;;;;;;;29.23;18.38;;;;;;;;;;4972729;28;20190;-77
2021/03/08 08:58:24;;;;;;;29.60;18.70;;;;;;;;;;4996392;28;20191;-77
2021/03/08 09:01:09;;;;;;;28.92;19.58;;;;;;;;;;4989143;28;20179;-79
2021/03/08 09:03:51;;;;;;;31.17;20.25;;;;;;;;;;5000969;28;20196;-78
2021/03/08 09:06:36;;;;;;;27.30;17.23;;;;;;;;;;4998051;28;20214;-78
2021/03/08 09:09:02;;;;;;;26.50;17.35;;;;;;;;;;4993058;28;20183;-83
2021/03/08 09:11:42;;;;;;;26.88;17.83;;;;;;;;;;4994256;28;20258;-82
2021/03/08 09:14:21;;;;;;;26.15;18.10;;;;;;;;;;4999512;28;20179;-87
2021/03/08 09:16:48;;;;;;;24.40;17.55;;;;;;;;;;4990027;28;20198;-87
2021/03/08 09:19:22;;;;;;;21.00;15.18;;;;;;;;;;4995863;28;20191;-83
2021/03/08 09:21:48;;;;;;;23.52;16.17;;;;;;;;;;4995701;28;20263;-84
2021/03/08 09:24:31;;;;;;;22.98;17.10;;;;;;;;;;4998829;28;20183;-81
2021/03/08 09:26:57;;;;;;;26.05;16.50;;;;;;;;;;4998215;28;20245;-83
2021/03/08 09:29:23;;;;;;;27.52;16.58;;;;;;;;;;4998900;28;20246;-84
2021/03/08 09:31:51;;;;;;;23.40;15.73;;;;;;;;;;4980190;28;20214;-87
2021/03/08 09:34:17;;;;;;;25.33;16.65;;;;;;;;;;4995259;28;20570;-84
2021/03/08 09:36:43;;;;;;;21.83;14.68;;;;;;;;;;4998333;28;20206;-83
2021/03/08 09:39:09;;;;;;;28.13;16.65;;;;;;;;;;5002735;28;20210;-86
2021/03/08 09:41:35;;;;;;;23.50;15.85;;;;;;;;;;5000648;28;20183;-84
2021/03/08 09:44:01;;;;;;;20.88;14.38;;;;;;;;;;4983045;28;20423;-83
2021/03/08 09:46:27;;;;;;;20.35;14.18;;;;;;;;;;4999756;28;20463;-83
2021/03/08 09:48:55;;;;;;;21.35;14.00;;;;;;;;;;5002217;28;20223;-87
2021/03/08 09:51:21;;;;;;;20.60;14.10;;;;;;;;;;5000043;28;20171;-83
2021/03/08 09:53:49;;;;;;;21.88;14.13;;;;;;;;;;4985127;28;20261;-84
2021/03/08 09:56:16;;;;;;;20.08;13.60;;;;;;;;;;4984943;28;20195;-82
2021/03/08 09:58:42;;;;;;;16.73;12.00;;;;;;;;;;5003593;28;20549;-82
2021/03/08 10:01:26;;;;;;;15.02;11.85;;;;;;;;;;4999538;28;20183;-84
2021/03/08 10:03:52;;;;;;;19.45;12.18;;;;;;;;;;4998681;28;20186;-86
2021/03/08 10:06:25;;;;;;;15.00;11.77;;;;;;;;;;4997821;28;20205;-81
2021/03/08 10:08:51;;;;;;;18.60;11.43;;;;;;;;;;5006918;28;20198;-82
2021/03/08 10:11:22;;;;;;;17.85;12.65;;;;;;;;;;5001671;28;20219;-83
2021/03/08 10:13:48;;;;;;;15.55;11.02;;;;;;;;;;5001085;28;20183;-82
2021/03/08 10:16:20;;;;;;;20.00;15.00;;;;;;;;;;4998467;28;20196;-85
2021/03/08 10:18:46;;;;;;;17.90;13.63;;;;;;;;;;4999256;28;20183;-84
2021/03/08 10:21:12;;;;;;;17.73;12.73;;;;;;;;;;4997706;28;20183;-84
2021/03/08 10:23:38;;;;;;;21.27;13.27;;;;;;;;;;4996803;28;20226;-83
2021/03/08 10:26:10;;;;;;;19.70;14.40;;;;;;;;;;4984921;28;20207;-83
2021/03/08 10:28:39;;;;;;;18.38;13.85;;;;;;;;;;5011693;28;20190;-84
2021/03/08 10:31:06;;;;;;;20.63;12.48;;;;;;;;;;4979409;28;20187;-82
2021/03/08 10:33:32;;;;;;;17.17;12.13;;;;;;;;;;5010920;28;20175;-82
2021/03/08 10:35:59;;;;;;;18.90;13.63;;;;;;;;;;4984530;28;20211;-82
2021/03/08 10:38:32;;;;;;;20.98;13.63;;;;;;;;;;4985639;28;20593;-84
2021/03/08 10:40:58;;;;;;;17.23;13.10;;;;;;;;;;4999465;28;20687;-84
2021/03/08 10:43:25;;;;;;;22.52;15.00;;;;;;;;;;5003026;28;20582;-81
2021/03/08 10:45:52;;;;;;;23.90;15.90;;;;;;;;;;4987317;28;20203;-86
2021/03/08 10:48:18;;;;;;;20.00;14.80;;;;;;;;;;4996996;28;20302;-86
2021/03/08 10:50:46;;;;;;;20.48;15.43;;;;;;;;;;4994736;28;20191;-84
2021/03/08 10:53:12;;;;;;;24.42;16.13;;;;;;;;;;4983595;28;20175;-83
2021/03/08 10:55:39;;;;;;;21.55;16.42;;;;;;;;;;5000329;28;20194;-83
2021/03/08 10:58:05;;;;;;;24.45;16.40;;;;;;;;;;4995223;28;20205;-81
2021/03/08 11:00:35;;;;;;;25.02;17.05;;;;;;;;;;5003919;28;20187;-81
2021/03/08 11:03:01;;;;;;;25.85;17.38;;;;;;;;;;4998550;28;20205;-80
2021/03/08 11:05:28;;;;;;;23.10;15.18;;;;;;;;;;4996009;28;20212;-80
2021/03/08 11:07:54;;;;;;;24.15;16.35;;;;;;;;;;4984072;28;20187;-81
2021/03/08 11:10:36;;;;;;;23.30;17.05;;;;;;;;;;5002810;28;20198;-79
2021/03/08 11:13:11;;;;;;;21.10;15.65;;;;;;;;;;4980040;28;20182;-81
2021/03/08 11:15:38;;;;;;;24.33;16.67;;;;;;;;;;4996053;28;20233;-79
2021/03/08 11:18:04;;;;;;;27.40;19.33;;;;;;;;;;5003359;28;20194;-80
2021/03/08 11:20:31;;;;;;;21.60;16.15;;;;;;;;;;5000984;28;20191;-82
2021/03/08 11:22:58;;;;;;;23.73;16.80;;;;;;;;;;5000782;28;20246;-78
2021/03/08 11:25:25;;;;;;;25.15;17.17;;;;;;;;;;5000756;28;20693;-77
2021/03/08 11:27:51;;;;;;;21.08;15.68;;;;;;;;;;4998662;28;20263;-79
2021/03/08 11:30:18;;;;;;;20.20;15.40;;;;;;;;;;5003954;28;20194;-78
2021/03/08 11:32:44;;;;;;;23.10;15.18;;;;;;;;;;5000120;28;20392;-79
2021/03/08 11:35:36;;;;;;;21.58;15.80;;;;;;;;;;4999494;28;20190;-78
2021/03/08 11:38:10;;;;;;;24.20;15.75;;;;;;;;;;4981028;28;20210;-78
2021/03/08 11:40:37;;;;;;;20.30;16.45;;;;;;;;;;4999120;28;20191;-80
2021/03/08 11:43:04;;;;;;;22.27;16.85;;;;;;;;;;5001886;28;20187;-79
2021/03/08 11:45:30;;;;;;;21.35;16.00;;;;;;;;;;4996347;28;20203;-78
2021/03/08 11:47:58;;;;;;;18.17;15.07;;;;;;;;;;5002232;28;20227;-78
2021/03/08 11:50:25;;;;;;;19.98;15.20;;;;;;;;;;4995590;28;20187;-77
2021/03/08 11:52:51;;;;;;;18.48;16.23;;;;;;;;;;4999079;28;20722;-82
2021/03/08 11:55:18;;;;;;;22.27;15.68;;;;;;;;;;5002167;28;20568;-78
2021/03/08 11:57:47;;;;;;;20.80;16.40;;;;;;;;;;5002868;28;20179;-79
2021/03/08 12:00:14;;;;;;;20.67;16.30;;;;;;;;;;5002980;28;20179;-81
2021/03/08 12:02:40;;;;;;;19.50;16.27;;;;;;;;;;5001739;28;20191;-77
2021/03/08 12:05:07;;;;;;;21.20;16.80;;;;;;;;;;5005863;28;20218;-78
2021/03/08 12:07:34;;;;;;;18.77;14.80;;;;;;;;;;5000516;28;20308;-78
2021/03/08 12:10:00;;;;;;;24.30;15.80;;;;;;;;;;4983346;28;20191;-78
2021/03/08 12:12:26;;;;;;;18.65;15.18;;;;;;;;;;5000854;28;20191;-78
2021/03/08 12:14:52;;;;;;;20.80;16.70;;;;;;;;;;4977883;28;20186;-78
2021/03/08 12:17:18;;;;;;;18.23;15.60;;;;;;;;;;4984237;28;20442;-81
2021/03/08 12:19:44;;;;;;;18.35;16.35;;;;;;;;;;4998842;28;20445;-79
2021/03/08 12:22:10;;;;;;;16.60;14.80;;;;;;;;;;4996539;28;20246;-79
2021/03/08 12:24:36;;;;;;;20.60;16.70;;;;;;;;;;4986753;28;20434;-79
2021/03/08 12:27:02;;;;;;;18.03;15.77;;;;;;;;;;5000115;28;20935;-76
2021/03/08 12:29:28;;;;;;;19.13;17.15;;;;;;;;;;4998862;28;20513;-80
2021/03/08 12:31:54;;;;;;;19.70;16.13;;;;;;;;;;4980303;28;20691;-75
2021/03/08 12:34:20;;;;;;;20.15;16.92;;;;;;;;;;4995627;28;20692;-77
2021/03/08 12:36:46;;;;;;;22.58;17.17;;;;;;;;;;4997724;28;20241;-76
2021/03/08 12:39:12;;;;;;;18.60;16.57;;;;;;;;;;4996268;28;20253;-75
2021/03/08 12:41:38;;;;;;;18.23;16.33;;;;;;;;;;4982791;28;20434;-78
2021/03/08 12:44:05;;;;;;;18.55;16.63;;;;;;;;;;4982974;28;20187;-76
2021/03/08 12:46:31;;;;;;;19.65;17.30;;;;;;;;;;5001474;28;20222;-76
2021/03/08 12:48:57;;;;;;;19.90;17.27;;;;;;;;;;4994999;28;20250;-76
2021/03/08 12:51:23;;;;;;;20.73;17.50;;;;;;;;;;5002992;28;20430;-75
2021/03/08 12:53:49;;;;;;;22.13;18.25;;;;;;;;;;4997656;28;20455;-76
2021/03/08 12:56:16;;;;;;;20.58;16.80;;;;;;;;;;4999845;28;20188;-76
2021/03/08 12:58:41;;;;;;;20.27;16.58;;;;;;;;;;4999428;28;20183;-76
2021/03/08 13:01:07;;;;;;;21.90;18.80;;;;;;;;;;4994252;28;20613;-75
2021/03/08 13:03:34;;;;;;;22.65;18.13;;;;;;;;;;4987669;28;20465;-75
2021/03/08 13:06:00;;;;;;;21.63;17.77;;;;;;;;;;5003460;28;20261;-75
2021/03/08 13:08:26;;;;;;;18.17;16.10;;;;;;;;;;4998409;28;20184;-75
2021/03/08 13:10:53;;;;;;;21.20;17.00;;;;;;;;;;4972025;28;20615;-75
2021/03/08 13:13:22;;;;;;;21.83;17.50;;;;;;;;;;4999341;28;20535;-75
2021/03/08 13:15:51;;;;;;;19.10;17.05;;;;;;;;;;5000757;28;20171;-75
2021/03/08 13:18:17;;;;;;;19.48;16.60;;;;;;;;;;4999960;28;20203;-74
2021/03/08 13:20:44;;;;;;;19.23;16.85;;;;;;;;;;5001834;28;20194;-75
2021/03/08 13:23:10;;;;;;;22.45;16.95;;;;;;;;;;4985459;28;20183;-75
2021/03/08 13:25:36;;;;;;;21.50;17.33;;;;;;;;;;4990295;28;20202;-76
2021/03/08 13:28:03;;;;;;;17.88;15.80;;;;;;;;;;5002668;28;20183;-75
2021/03/08 13:30:29;;;;;;;20.35;16.15;;;;;;;;;;5001378;28;20234;-75
2021/03/08 13:32:55;;;;;;;18.77;16.80;;;;;;;;;;4998056;28;20215;-75
2021/03/08 13:35:21;;;;;;;23.52;18.95;;;;;;;;;;4998625;28;20443;-76
2021/03/08 13:37:47;;;;;;;21.10;16.92;;;;;;;;;;5002315;28;20193;-75
2021/03/08 13:40:13;;;;;;;20.15;17.63;;;;;;;;;;5003142;28;20187;-75
2021/03/08 13:42:39;;;;;;;20.15;16.58;;;;;;;;;;5005167;28;20187;-78
2021/03/08 13:45:07;;;;;;;22.60;17.07;;;;;;;;;;5004546;28;20186;-76
2021/03/08 13:47:33;;;;;;;20.27;17.48;;;;;;;;;;4986506;28;20469;-76
2021/03/08 13:49:59;;;;;;;19.00;16.02;;;;;;;;;;5000164;28;20192;-76
2021/03/08 13:52:25;;;;;;;22.10;17.17;;;;;;;;;;4999225;28;20190;-76
2021/03/08 13:54:51;;;;;;;21.67;17.13;;;;;;;;;;5001258;28;20179;-75
2021/03/08 13:57:17;;;;;;;22.23;17.20;;;;;;;;;;5004773;28;20423;-76
2021/03/08 13:59:43;;;;;;;22.92;17.85;;;;;;;;;;4996756;28;20243;-75
2021/03/08 14:02:09;;;;;;;21.67;17.63;;;;;;;;;;4997946;28;20682;-76
2021/03/08 14:04:35;;;;;;;18.45;16.33;;;;;;;;;;5001666;28;20930;-77
2021/03/08 14:07:01;;;;;;;21.42;17.42;;;;;;;;;;5009012;28;20207;-75
2021/03/08 14:09:27;;;;;;;22.00;18.17;;;;;;;;;;5005236;28;20175;-77
2021/03/08 14:11:53;;;;;;;22.55;17.42;;;;;;;;;;5007980;28;20186;-77
2021/03/08 14:14:19;;;;;;;17.97;16.00;;;;;;;;;;5001981;28;20189;-76
2021/03/08 14:16:46;;;;;;;22.30;17.00;;;;;;;;;;5001219;28;20648;-76
2021/03/08 14:19:12;;;;;;;20.50;15.13;;;;;;;;;;5003019;28;20190;-75
2021/03/08 14:21:38;;;;;;;22.50;17.50;;;;;;;;;;5002484;28;20221;-76